Ft Myer, Virginia
Current Conditions -  °F | °C
As of 2:52 PM on Tuesday 21 Oct 2014 (Local Time) from KDCA Reporting Station
Broken Clouds Broken Clouds  
Wind Chill: 70°   Ceiling: 6000
Heat Index: 70°   Visibility: 10mi
Dew Point: 47°   Wind: 5mph
Humidity: 44%   Direction: 360°N
Pressure: 29.81"   Gusts: NA
Location:  38.8787°N, 77.0774°W
Report Text: KDCA 211852Z 36004KT 10SM BKN060 BKN120 BKN250 21/08 A2981 RMK AO2 SLP094 T02110083
Loading
Personal Weather Stations






























Interactive Weather Map
Tropical Storm Tracking
New forecast layout! Learn more

10-Day Weather Forecast

Advertisements
Track Severe Weather on mobile